sensor_id;sensor_type;location;lat;lon;timestamp;P1;durP1;ratioP1;P2;durP2;ratioP2
32216;SDS011;67098;51.140;4.088;2023-02-01T00:02:04;32.80;;;8.27;;
32216;SDS011;67098;51.140;4.088;2023-02-01T00:04:30;37.55;;;8.65;;
32216;SDS011;67098;51.140;4.088;2023-02-01T00:06:56;32.42;;;7.40;;
32216;SDS011;67098;51.140;4.088;2023-02-01T00:09:22;32.47;;;7.75;;
32216;SDS011;67098;51.140;4.088;2023-02-01T00:11:48;31.08;;;7.75;;
32216;SDS011;67098;51.140;4.088;2023-02-01T00:14:14;40.92;;;10.05;;
32216;SDS011;67098;51.140;4.088;2023-02-01T00:16:41;31.67;;;7.43;;
32216;SDS011;67098;51.140;4.088;2023-02-01T00:19:10;26.98;;;6.97;;
32216;SDS011;67098;51.140;4.088;2023-02-01T00:21:37;30.92;;;7.30;;
32216;SDS011;67098;51.140;4.088;2023-02-01T00:24:03;32.97;;;7.13;;
32216;SDS011;67098;51.140;4.088;2023-02-01T00:26:42;33.05;;;8.68;;
32216;SDS011;67098;51.140;4.088;2023-02-01T00:29:10;33.78;;;7.20;;
32216;SDS011;67098;51.140;4.088;2023-02-01T00:31:38;29.05;;;7.03;;
32216;SDS011;67098;51.140;4.088;2023-02-01T00:34:04;32.30;;;6.15;;
32216;SDS011;67098;51.140;4.088;2023-02-01T00:36:30;40.13;;;6.75;;
32216;SDS011;67098;51.140;4.088;2023-02-01T00:38:56;26.38;;;6.93;;
32216;SDS011;67098;51.140;4.088;2023-02-01T00:41:22;28.17;;;6.00;;
32216;SDS011;67098;51.140;4.088;2023-02-01T00:43:48;29.42;;;6.45;;
32216;SDS011;67098;51.140;4.088;2023-02-01T00:46:15;28.50;;;5.30;;
32216;SDS011;67098;51.140;4.088;2023-02-01T00:48:42;29.88;;;5.55;;
32216;SDS011;67098;51.140;4.088;2023-02-01T00:51:09;31.92;;;5.60;;
32216;SDS011;67098;51.140;4.088;2023-02-01T00:53:39;36.38;;;5.28;;
32216;SDS011;67098;51.140;4.088;2023-02-01T00:56:05;21.90;;;5.68;;
32216;SDS011;67098;51.140;4.088;2023-02-01T00:58:32;33.22;;;5.82;;
32216;SDS011;67098;51.140;4.088;2023-02-01T01:03:29;33.42;;;5.40;;
32216;SDS011;67098;51.140;4.088;2023-02-01T01:05:58;26.08;;;5.40;;
32216;SDS011;67098;51.140;4.088;2023-02-01T01:08:25;28.50;;;6.47;;
32216;SDS011;67098;51.140;4.088;2023-02-01T01:10:51;21.20;;;4.95;;
32216;SDS011;67098;51.140;4.088;2023-02-01T01:13:17;31.00;;;6.25;;
32216;SDS011;67098;51.140;4.088;2023-02-01T01:15:43;33.95;;;6.70;;
32216;SDS011;67098;51.140;4.088;2023-02-01T01:18:09;38.13;;;6.88;;
32216;SDS011;67098;51.140;4.088;2023-02-01T01:20:35;26.55;;;5.70;;
32216;SDS011;67098;51.140;4.088;2023-02-01T01:23:03;27.95;;;5.88;;
32216;SDS011;67098;51.140;4.088;2023-02-01T01:25:29;36.70;;;5.82;;
32216;SDS011;67098;51.140;4.088;2023-02-01T01:27:55;32.60;;;6.25;;
32216;SDS011;67098;51.140;4.088;2023-02-01T01:30:21;24.80;;;4.78;;
32216;SDS011;67098;51.140;4.088;2023-02-01T01:32:47;21.20;;;4.50;;
32216;SDS011;67098;51.140;4.088;2023-02-01T01:35:12;17.88;;;4.93;;
32216;SDS011;67098;51.140;4.088;2023-02-01T01:37:38;19.23;;;4.97;;
32216;SDS011;67098;51.140;4.088;2023-02-01T01:40:04;34.15;;;5.05;;
32216;SDS011;67098;51.140;4.088;2023-02-01T01:42:41;32.50;;;5.20;;
32216;SDS011;67098;51.140;4.088;2023-02-01T01:47:56;30.35;;;5.38;;
32216;SDS011;67098;51.140;4.088;2023-02-01T01:50:40;27.23;;;4.80;;
32216;SDS011;67098;51.140;4.088;2023-02-01T01:53:09;27.25;;;5.38;;
32216;SDS011;67098;51.140;4.088;2023-02-01T01:55:40;36.90;;;6.22;;
32216;SDS011;67098;51.140;4.088;2023-02-01T01:58:10;28.80;;;5.28;;
32216;SDS011;67098;51.140;4.088;2023-02-01T02:00:40;27.65;;;5.45;;
32216;SDS011;67098;51.140;4.088;2023-02-01T02:03:11;31.20;;;5.60;;
32216;SDS011;67098;51.140;4.088;2023-02-01T02:05:54;24.50;;;5.53;;
32216;SDS011;67098;51.140;4.088;2023-02-01T02:08:22;19.58;;;5.25;;
32216;SDS011;67098;51.140;4.088;2023-02-01T02:10:50;28.20;;;6.00;;
32216;SDS011;67098;51.140;4.088;2023-02-01T02:13:26;28.52;;;4.22;;
32216;SDS011;67098;51.140;4.088;2023-02-01T02:16:05;25.92;;;4.13;;
32216;SDS011;67098;51.140;4.088;2023-02-01T02:33:13;23.48;;;4.40;;
32216;SDS011;67098;51.140;4.088;2023-02-01T02:42:17;35.60;;;4.40;;
32216;SDS011;67098;51.140;4.088;2023-02-01T02:45:22;28.30;;;3.67;;
32216;SDS011;67098;51.140;4.088;2023-02-01T02:51:25;21.73;;;4.15;;
32216;SDS011;67098;51.140;4.088;2023-02-01T02:54:17;35.92;;;3.88;;
32216;SDS011;67098;51.140;4.088;2023-02-01T02:57:05;25.00;;;4.05;;
32216;SDS011;67098;51.140;4.088;2023-02-01T02:59:53;26.08;;;3.72;;
32216;SDS011;67098;51.140;4.088;2023-02-01T03:02:40;26.90;;;3.60;;
32216;SDS011;67098;51.140;4.088;2023-02-01T03:05:24;30.08;;;4.38;;
32216;SDS011;67098;51.140;4.088;2023-02-01T03:07:57;24.52;;;3.92;;
32216;SDS011;67098;51.140;4.088;2023-02-01T03:10:43;28.00;;;5.00;;
32216;SDS011;67098;51.140;4.088;2023-02-01T03:21:22;24.05;;;4.35;;
32216;SDS011;67098;51.140;4.088;2023-02-01T03:23:51;23.38;;;4.25;;
32216;SDS011;67098;51.140;4.088;2023-02-01T03:26:21;26.02;;;4.45;;
32216;SDS011;67098;51.140;4.088;2023-02-01T03:28:54;26.15;;;4.47;;
32216;SDS011;67098;51.140;4.088;2023-02-01T03:31:25;38.28;;;5.03;;
32216;SDS011;67098;51.140;4.088;2023-02-01T03:33:52;27.70;;;4.15;;
32216;SDS011;67098;51.140;4.088;2023-02-01T03:39:01;31.35;;;5.30;;
32216;SDS011;67098;51.140;4.088;2023-02-01T03:46:49;33.95;;;4.00;;
32216;SDS011;67098;51.140;4.088;2023-02-01T03:49:29;31.73;;;4.72;;
32216;SDS011;67098;51.140;4.088;2023-02-01T03:52:06;29.55;;;4.55;;
32216;SDS011;67098;51.140;4.088;2023-02-01T03:54:43;28.75;;;4.25;;
32216;SDS011;67098;51.140;4.088;2023-02-01T03:57:11;32.88;;;4.80;;
32216;SDS011;67098;51.140;4.088;2023-02-01T03:59:41;21.70;;;4.30;;
32216;SDS011;67098;51.140;4.088;2023-02-01T04:02:09;26.27;;;4.10;;
32216;SDS011;67098;51.140;4.088;2023-02-01T04:04:35;31.83;;;5.05;;
32216;SDS011;67098;51.140;4.088;2023-02-01T04:07:01;33.10;;;4.88;;
32216;SDS011;67098;51.140;4.088;2023-02-01T04:09:27;29.73;;;4.32;;
32216;SDS011;67098;51.140;4.088;2023-02-01T04:11:53;32.10;;;4.60;;
32216;SDS011;67098;51.140;4.088;2023-02-01T04:14:19;32.25;;;6.70;;
32216;SDS011;67098;51.140;4.088;2023-02-01T04:16:44;35.50;;;4.65;;
32216;SDS011;67098;51.140;4.088;2023-02-01T04:19:10;27.30;;;4.90;;
32216;SDS011;67098;51.140;4.088;2023-02-01T04:21:36;30.05;;;4.60;;
32216;SDS011;67098;51.140;4.088;2023-02-01T04:24:02;39.50;;;5.13;;
32216;SDS011;67098;51.140;4.088;2023-02-01T04:26:28;23.42;;;4.75;;
32216;SDS011;67098;51.140;4.088;2023-02-01T04:28:53;36.78;;;5.35;;
32216;SDS011;67098;51.140;4.088;2023-02-01T04:31:19;30.17;;;5.10;;
32216;SDS011;67098;51.140;4.088;2023-02-01T04:33:51;38.97;;;6.00;;
32216;SDS011;67098;51.140;4.088;2023-02-01T04:36:18;21.15;;;4.20;;
32216;SDS011;67098;51.140;4.088;2023-02-01T04:38:47;39.63;;;5.53;;
32216;SDS011;67098;51.140;4.088;2023-02-01T04:41:16;32.20;;;5.25;;
32216;SDS011;67098;51.140;4.088;2023-02-01T04:43:45;27.63;;;4.43;;
32216;SDS011;67098;51.140;4.088;2023-02-01T04:46:11;29.33;;;4.90;;
32216;SDS011;67098;51.140;4.088;2023-02-01T04:48:37;28.55;;;4.65;;
32216;SDS011;67098;51.140;4.088;2023-02-01T04:51:02;22.80;;;4.88;;
32216;SDS011;67098;51.140;4.088;2023-02-01T04:53:28;29.48;;;4.95;;
32216;SDS011;67098;51.140;4.088;2023-02-01T04:55:55;27.30;;;5.03;;
32216;SDS011;67098;51.140;4.088;2023-02-01T04:58:20;27.58;;;4.72;;
32216;SDS011;67098;51.140;4.088;2023-02-01T05:00:46;38.97;;;5.13;;
32216;SDS011;67098;51.140;4.088;2023-02-01T05:03:12;27.38;;;5.25;;
32216;SDS011;67098;51.140;4.088;2023-02-01T05:05:38;34.75;;;5.43;;
32216;SDS011;67098;51.140;4.088;2023-02-01T05:08:03;30.85;;;4.85;;
32216;SDS011;67098;51.140;4.088;2023-02-01T05:10:29;30.30;;;4.68;;
32216;SDS011;67098;51.140;4.088;2023-02-01T05:12:55;19.80;;;4.20;;
32216;SDS011;67098;51.140;4.088;2023-02-01T05:15:39;31.58;;;6.10;;
32216;SDS011;67098;51.140;4.088;2023-02-01T05:18:05;31.98;;;5.32;;
32216;SDS011;67098;51.140;4.088;2023-02-01T05:20:30;32.83;;;5.18;;
32216;SDS011;67098;51.140;4.088;2023-02-01T05:22:56;31.63;;;4.85;;
32216;SDS011;67098;51.140;4.088;2023-02-01T05:25:22;34.78;;;5.10;;
32216;SDS011;67098;51.140;4.088;2023-02-01T05:27:47;32.38;;;5.35;;
32216;SDS011;67098;51.140;4.088;2023-02-01T05:30:13;32.85;;;5.45;;
32216;SDS011;67098;51.140;4.088;2023-02-01T05:32:39;40.85;;;5.35;;
32216;SDS011;67098;51.140;4.088;2023-02-01T05:35:05;38.30;;;5.70;;
32216;SDS011;67098;51.140;4.088;2023-02-01T05:37:31;30.95;;;5.22;;
32216;SDS011;67098;51.140;4.088;2023-02-01T05:39:57;28.27;;;5.15;;
32216;SDS011;67098;51.140;4.088;2023-02-01T05:42:22;26.85;;;4.55;;
32216;SDS011;67098;51.140;4.088;2023-02-01T05:44:48;32.55;;;5.00;;
32216;SDS011;67098;51.140;4.088;2023-02-01T05:47:14;32.55;;;5.20;;
32216;SDS011;67098;51.140;4.088;2023-02-01T05:49:39;35.35;;;6.15;;
32216;SDS011;67098;51.140;4.088;2023-02-01T05:52:05;22.63;;;4.53;;
32216;SDS011;67098;51.140;4.088;2023-02-01T05:54:31;37.90;;;5.13;;
32216;SDS011;67098;51.140;4.088;2023-02-01T05:56:56;38.65;;;6.53;;
32216;SDS011;67098;51.140;4.088;2023-02-01T05:59:22;38.63;;;5.00;;
32216;SDS011;67098;51.140;4.088;2023-02-01T06:01:48;31.88;;;5.97;;
32216;SDS011;67098;51.140;4.088;2023-02-01T06:04:13;26.58;;;4.32;;
32216;SDS011;67098;51.140;4.088;2023-02-01T06:06:39;31.08;;;5.07;;
32216;SDS011;67098;51.140;4.088;2023-02-01T06:09:05;44.97;;;5.47;;
32216;SDS011;67098;51.140;4.088;2023-02-01T06:11:31;32.22;;;5.60;;
32216;SDS011;67098;51.140;4.088;2023-02-01T06:13:56;32.95;;;4.93;;
32216;SDS011;67098;51.140;4.088;2023-02-01T06:16:22;40.95;;;5.70;;
32216;SDS011;67098;51.140;4.088;2023-02-01T06:18:48;34.95;;;4.32;;
32216;SDS011;67098;51.140;4.088;2023-02-01T06:21:14;29.85;;;4.45;;
32216;SDS011;67098;51.140;4.088;2023-02-01T06:23:48;33.58;;;4.70;;
32216;SDS011;67098;51.140;4.088;2023-02-01T06:26:15;35.65;;;4.47;;
32216;SDS011;67098;51.140;4.088;2023-02-01T06:28:43;45.88;;;5.28;;
32216;SDS011;67098;51.140;4.088;2023-02-01T06:31:09;33.53;;;6.00;;
32216;SDS011;67098;51.140;4.088;2023-02-01T06:33:35;24.65;;;5.63;;
32216;SDS011;67098;51.140;4.088;2023-02-01T06:36:02;34.85;;;5.43;;
32216;SDS011;67098;51.140;4.088;2023-02-01T06:38:30;23.52;;;5.03;;
32216;SDS011;67098;51.140;4.088;2023-02-01T06:40:56;33.92;;;4.25;;
32216;SDS011;67098;51.140;4.088;2023-02-01T06:43:23;34.40;;;4.55;;
32216;SDS011;67098;51.140;4.088;2023-02-01T06:45:51;27.50;;;4.80;;
32216;SDS011;67098;51.140;4.088;2023-02-01T06:48:17;32.33;;;4.50;;
32216;SDS011;67098;51.140;4.088;2023-02-01T06:50:43;41.10;;;6.57;;
32216;SDS011;67098;51.140;4.088;2023-02-01T06:53:09;38.83;;;5.93;;
32216;SDS011;67098;51.140;4.088;2023-02-01T06:55:34;32.85;;;5.05;;
32216;SDS011;67098;51.140;4.088;2023-02-01T06:58:00;40.45;;;4.78;;
32216;SDS011;67098;51.140;4.088;2023-02-01T07:00:27;27.70;;;4.95;;
32216;SDS011;67098;51.140;4.088;2023-02-01T07:02:54;30.88;;;6.28;;
32216;SDS011;67098;51.140;4.088;2023-02-01T07:05:20;29.70;;;5.28;;
32216;SDS011;67098;51.140;4.088;2023-02-01T07:07:46;32.30;;;4.72;;
32216;SDS011;67098;51.140;4.088;2023-02-01T07:10:11;37.05;;;5.38;;
32216;SDS011;67098;51.140;4.088;2023-02-01T07:12:37;33.05;;;5.18;;
32216;SDS011;67098;51.140;4.088;2023-02-01T07:15:03;25.85;;;4.45;;
32216;SDS011;67098;51.140;4.088;2023-02-01T07:17:30;28.98;;;5.63;;
32216;SDS011;67098;51.140;4.088;2023-02-01T07:19:56;37.55;;;5.20;;
32216;SDS011;67098;51.140;4.088;2023-02-01T07:22:24;32.25;;;4.93;;
32216;SDS011;67098;51.140;4.088;2023-02-01T07:24:50;43.13;;;5.30;;
32216;SDS011;67098;51.140;4.088;2023-02-01T07:27:16;34.80;;;6.38;;
32216;SDS011;67098;51.140;4.088;2023-02-01T07:29:41;29.83;;;5.60;;
32216;SDS011;67098;51.140;4.088;2023-02-01T07:32:07;37.83;;;5.88;;
32216;SDS011;67098;51.140;4.088;2023-02-01T07:34:33;37.83;;;5.40;;
32216;SDS011;67098;51.140;4.088;2023-02-01T07:36:58;31.40;;;5.18;;
32216;SDS011;67098;51.140;4.088;2023-02-01T07:39:24;31.25;;;4.65;;
32216;SDS011;67098;51.140;4.088;2023-02-01T07:41:53;30.33;;;5.75;;
32216;SDS011;67098;51.140;4.088;2023-02-01T07:44:19;42.90;;;6.25;;
32216;SDS011;67098;51.140;4.088;2023-02-01T07:46:47;32.42;;;4.95;;
32216;SDS011;67098;51.140;4.088;2023-02-01T07:49:13;30.17;;;6.30;;
32216;SDS011;67098;51.140;4.088;2023-02-01T07:51:39;33.25;;;5.60;;
32216;SDS011;67098;51.140;4.088;2023-02-01T07:54:05;30.55;;;5.22;;
32216;SDS011;67098;51.140;4.088;2023-02-01T07:56:30;40.38;;;6.03;;
32216;SDS011;67098;51.140;4.088;2023-02-01T07:58:56;43.60;;;6.53;;
32216;SDS011;67098;51.140;4.088;2023-02-01T08:01:25;22.17;;;5.28;;
32216;SDS011;67098;51.140;4.088;2023-02-01T08:03:55;37.92;;;5.13;;
32216;SDS011;67098;51.140;4.088;2023-02-01T08:06:24;27.35;;;5.03;;
32216;SDS011;67098;51.140;4.088;2023-02-01T08:08:50;30.17;;;5.25;;
32216;SDS011;67098;51.140;4.088;2023-02-01T08:11:18;26.63;;;5.35;;
32216;SDS011;67098;51.140;4.088;2023-02-01T08:13:44;36.85;;;5.93;;
32216;SDS011;67098;51.140;4.088;2023-02-01T08:16:11;37.35;;;5.53;;
32216;SDS011;67098;51.140;4.088;2023-02-01T08:18:38;25.50;;;5.15;;
32216;SDS011;67098;51.140;4.088;2023-02-01T08:21:05;38.35;;;6.10;;
32216;SDS011;67098;51.140;4.088;2023-02-01T08:23:32;33.33;;;5.13;;
32216;SDS011;67098;51.140;4.088;2023-02-01T08:26:09;34.35;;;5.90;;
32216;SDS011;67098;51.140;4.088;2023-02-01T08:28:38;24.45;;;4.38;;
32216;SDS011;67098;51.140;4.088;2023-02-01T08:31:06;36.78;;;6.60;;
32216;SDS011;67098;51.140;4.088;2023-02-01T08:33:33;31.90;;;5.00;;
32216;SDS011;67098;51.140;4.088;2023-02-01T08:36:01;35.65;;;5.75;;
32216;SDS011;67098;51.140;4.088;2023-02-01T08:38:27;35.35;;;6.22;;
32216;SDS011;67098;51.140;4.088;2023-02-01T08:40:53;24.80;;;4.85;;
32216;SDS011;67098;51.140;4.088;2023-02-01T08:43:19;33.22;;;5.47;;
32216;SDS011;67098;51.140;4.088;2023-02-01T08:45:44;57.63;;;6.80;;
32216;SDS011;67098;51.140;4.088;2023-02-01T08:48:11;29.05;;;5.47;;
32216;SDS011;67098;51.140;4.088;2023-02-01T08:50:36;41.92;;;6.30;;
32216;SDS011;67098;51.140;4.088;2023-02-01T08:53:02;32.42;;;5.68;;
32216;SDS011;67098;51.140;4.088;2023-02-01T08:55:28;32.45;;;6.28;;
32216;SDS011;67098;51.140;4.088;2023-02-01T08:57:53;31.42;;;5.22;;
32216;SDS011;67098;51.140;4.088;2023-02-01T09:00:19;33.10;;;6.03;;
32216;SDS011;67098;51.140;4.088;2023-02-01T09:02:45;37.30;;;5.03;;
32216;SDS011;67098;51.140;4.088;2023-02-01T09:05:11;32.45;;;5.50;;
32216;SDS011;67098;51.140;4.088;2023-02-01T09:07:37;35.10;;;4.93;;
32216;SDS011;67098;51.140;4.088;2023-02-01T09:10:04;33.30;;;5.88;;
32216;SDS011;67098;51.140;4.088;2023-02-01T09:12:30;29.13;;;5.25;;
32216;SDS011;67098;51.140;4.088;2023-02-01T09:14:58;30.40;;;5.57;;
32216;SDS011;67098;51.140;4.088;2023-02-01T09:17:25;31.10;;;5.13;;
32216;SDS011;67098;51.140;4.088;2023-02-01T09:19:51;49.97;;;8.20;;
32216;SDS011;67098;51.140;4.088;2023-02-01T09:22:17;39.22;;;5.55;;
32216;SDS011;67098;51.140;4.088;2023-02-01T09:24:43;32.08;;;6.28;;
32216;SDS011;67098;51.140;4.088;2023-02-01T09:27:09;30.88;;;5.38;;
32216;SDS011;67098;51.140;4.088;2023-02-01T09:29:34;31.58;;;5.55;;
32216;SDS011;67098;51.140;4.088;2023-02-01T09:32:00;30.02;;;4.57;;
32216;SDS011;67098;51.140;4.088;2023-02-01T09:34:26;34.63;;;4.88;;
32216;SDS011;67098;51.140;4.088;2023-02-01T09:36:52;32.70;;;5.25;;
32216;SDS011;67098;51.140;4.088;2023-02-01T09:39:17;29.77;;;5.30;;
32216;SDS011;67098;51.140;4.088;2023-02-01T09:46:56;30.35;;;5.75;;
32216;SDS011;67098;51.140;4.088;2023-02-01T09:49:31;29.63;;;4.18;;
32216;SDS011;67098;51.140;4.088;2023-02-01T09:52:00;33.08;;;5.32;;
32216;SDS011;67098;51.140;4.088;2023-02-01T09:54:34;28.20;;;4.30;;
32216;SDS011;67098;51.140;4.088;2023-02-01T09:57:22;29.63;;;4.97;;
32216;SDS011;67098;51.140;4.088;2023-02-01T10:00:17;29.65;;;4.60;;
32216;SDS011;67098;51.140;4.088;2023-02-01T10:02:48;33.38;;;4.90;;
32216;SDS011;67098;51.140;4.088;2023-02-01T10:05:16;25.50;;;3.92;;
32216;SDS011;67098;51.140;4.088;2023-02-01T10:08:01;25.50;;;4.88;;
32216;SDS011;67098;51.140;4.088;2023-02-01T10:10:45;23.58;;;3.75;;
32216;SDS011;67098;51.140;4.088;2023-02-01T10:26:35;25.20;;;4.07;;
32216;SDS011;67098;51.140;4.088;2023-02-01T10:29:04;18.08;;;3.00;;
32216;SDS011;67098;51.140;4.088;2023-02-01T10:31:41;24.17;;;3.58;;
32216;SDS011;67098;51.140;4.088;2023-02-01T10:34:18;24.52;;;3.35;;
32216;SDS011;67098;51.140;4.088;2023-02-01T10:37:02;29.65;;;3.92;;
32216;SDS011;67098;51.140;4.088;2023-02-01T10:39:49;14.75;;;3.28;;
32216;SDS011;67098;51.140;4.088;2023-02-01T10:42:19;27.55;;;3.70;;
32216;SDS011;67098;51.140;4.088;2023-02-01T10:44:48;24.90;;;4.47;;
32216;SDS011;67098;51.140;4.088;2023-02-01T10:47:14;23.20;;;3.25;;
32216;SDS011;67098;51.140;4.088;2023-02-01T10:49:43;30.92;;;4.40;;
32216;SDS011;67098;51.140;4.088;2023-02-01T10:52:40;25.83;;;3.15;;
32216;SDS011;67098;51.140;4.088;2023-02-01T10:58:06;26.02;;;4.05;;
32216;SDS011;67098;51.140;4.088;2023-02-01T11:00:43;25.35;;;3.28;;
32216;SDS011;67098;51.140;4.088;2023-02-01T11:03:20;19.20;;;4.00;;
32216;SDS011;67098;51.140;4.088;2023-02-01T11:05:57;28.42;;;3.45;;
32216;SDS011;67098;51.140;4.088;2023-02-01T11:08:22;21.63;;;3.17;;
32216;SDS011;67098;51.140;4.088;2023-02-01T11:10:49;23.48;;;4.32;;
32216;SDS011;67098;51.140;4.088;2023-02-01T11:13:27;18.42;;;3.13;;
32216;SDS011;67098;51.140;4.088;2023-02-01T11:16:00;20.75;;;3.13;;
32216;SDS011;67098;51.140;4.088;2023-02-01T11:18:30;17.48;;;3.15;;
32216;SDS011;67098;51.140;4.088;2023-02-01T11:21:00;13.65;;;2.90;;
32216;SDS011;67098;51.140;4.088;2023-02-01T11:23:27;24.27;;;3.47;;
32216;SDS011;67098;51.140;4.088;2023-02-01T11:25:57;16.70;;;4.57;;
32216;SDS011;67098;51.140;4.088;2023-02-01T11:28:29;20.85;;;3.53;;
32216;SDS011;67098;51.140;4.088;2023-02-01T11:30:59;17.45;;;3.03;;
32216;SDS011;67098;51.140;4.088;2023-02-01T11:33:30;22.88;;;2.95;;
32216;SDS011;67098;51.140;4.088;2023-02-01T11:36:01;20.05;;;3.08;;
32216;SDS011;67098;51.140;4.088;2023-02-01T11:38:33;23.50;;;3.42;;
32216;SDS011;67098;51.140;4.088;2023-02-01T11:41:13;26.90;;;4.32;;
32216;SDS011;67098;51.140;4.088;2023-02-01T11:44:16;24.45;;;3.47;;
32216;SDS011;67098;51.140;4.088;2023-02-01T11:46:43;16.48;;;3.53;;
32216;SDS011;67098;51.140;4.088;2023-02-01T11:49:23;18.08;;;2.88;;
32216;SDS011;67098;51.140;4.088;2023-02-01T11:52:03;12.25;;;2.22;;
32216;SDS011;67098;51.140;4.088;2023-02-01T11:57:35;13.32;;;2.85;;
32216;SDS011;67098;51.140;4.088;2023-02-01T12:19:43;15.52;;;2.38;;
32216;SDS011;67098;51.140;4.088;2023-02-01T12:26:19;18.35;;;3.33;;
32216;SDS011;67098;51.140;4.088;2023-02-01T12:28:33;16.35;;;2.40;;
32216;SDS011;67098;51.140;4.088;2023-02-01T12:39:39;13.35;;;2.40;;
32216;SDS011;67098;51.140;4.088;2023-02-01T12:42:16;13.88;;;2.55;;
32216;SDS011;67098;51.140;4.088;2023-02-01T12:53:43;14.75;;;2.30;;
32216;SDS011;67098;51.140;4.088;2023-02-01T12:55:57;15.43;;;2.25;;
32216;SDS011;67098;51.140;4.088;2023-02-01T12:58:48;18.27;;;2.47;;
32216;SDS011;67098;51.140;4.088;2023-02-01T13:04:20;13.48;;;2.08;;
32216;SDS011;67098;51.140;4.088;2023-02-01T13:07:18;19.48;;;3.10;;
32216;SDS011;67098;51.140;4.088;2023-02-01T13:09:49;19.02;;;3.63;;
32216;SDS011;67098;51.140;4.088;2023-02-01T13:15:02;21.70;;;5.43;;
32216;SDS011;67098;51.140;4.088;2023-02-01T13:17:41;17.42;;;2.90;;
32216;SDS011;67098;51.140;4.088;2023-02-01T13:20:21;16.63;;;2.42;;
32216;SDS011;67098;51.140;4.088;2023-02-01T13:23:49;25.02;;;2.92;;
32216;SDS011;67098;51.140;4.088;2023-02-01T13:25:54;15.18;;;2.33;;
32216;SDS011;67098;51.140;4.088;2023-02-01T13:28:32;19.67;;;3.00;;
32216;SDS011;67098;51.140;4.088;2023-02-01T13:37:13;14.75;;;2.53;;
32216;SDS011;67098;51.140;4.088;2023-02-01T13:42:44;19.02;;;2.80;;
32216;SDS011;67098;51.140;4.088;2023-02-01T13:45:20;22.45;;;2.88;;
32216;SDS011;67098;51.140;4.088;2023-02-01T13:47:49;16.98;;;3.22;;
32216;SDS011;67098;51.140;4.088;2023-02-01T13:52:53;20.80;;;2.60;;
32216;SDS011;67098;51.140;4.088;2023-02-01T13:58:00;13.70;;;3.25;;
32216;SDS011;67098;51.140;4.088;2023-02-01T14:00:39;12.90;;;3.08;;
32216;SDS011;67098;51.140;4.088;2023-02-01T14:21:18;19.73;;;2.85;;
32216;SDS011;67098;51.140;4.088;2023-02-01T14:23:56;15.55;;;3.75;;
32216;SDS011;67098;51.140;4.088;2023-02-01T14:26:57;23.60;;;3.40;;
32216;SDS011;67098;51.140;4.088;2023-02-01T14:30:00;22.98;;;3.47;;
32216;SDS011;67098;51.140;4.088;2023-02-01T14:44:47;20.17;;;3.28;;
32216;SDS011;67098;51.140;4.088;2023-02-01T14:49:52;32.72;;;3.42;;
32216;SDS011;67098;51.140;4.088;2023-02-01T14:52:29;26.52;;;3.88;;
32216;SDS011;67098;51.140;4.088;2023-02-01T14:55:02;17.95;;;3.17;;
32216;SDS011;67098;51.140;4.088;2023-02-01T14:57:36;21.17;;;3.65;;
32216;SDS011;67098;51.140;4.088;2023-02-01T15:00:26;26.30;;;4.10;;
32216;SDS011;67098;51.140;4.088;2023-02-01T15:02:54;19.13;;;3.58;;
32216;SDS011;67098;51.140;4.088;2023-02-01T15:05:37;14.88;;;3.05;;
32216;SDS011;67098;51.140;4.088;2023-02-01T15:08:05;25.48;;;3.65;;
32216;SDS011;67098;51.140;4.088;2023-02-01T15:10:41;22.67;;;3.22;;
32216;SDS011;67098;51.140;4.088;2023-02-01T15:13:24;27.52;;;3.83;;
32216;SDS011;67098;51.140;4.088;2023-02-01T15:16:04;20.05;;;3.95;;
32216;SDS011;67098;51.140;4.088;2023-02-01T15:18:35;17.48;;;4.50;;
32216;SDS011;67098;51.140;4.088;2023-02-01T15:21:01;14.45;;;3.45;;
32216;SDS011;67098;51.140;4.088;2023-02-01T15:23:29;26.83;;;3.50;;
32216;SDS011;67098;51.140;4.088;2023-02-01T15:25:55;18.42;;;3.90;;
32216;SDS011;67098;51.140;4.088;2023-02-01T15:28:20;25.45;;;3.63;;
32216;SDS011;67098;51.140;4.088;2023-02-01T15:31:00;18.05;;;4.15;;
32216;SDS011;67098;51.140;4.088;2023-02-01T15:33:28;22.02;;;3.17;;
32216;SDS011;67098;51.140;4.088;2023-02-01T15:38:41;22.00;;;3.75;;
32216;SDS011;67098;51.140;4.088;2023-02-01T15:46:36;33.63;;;4.65;;
32216;SDS011;67098;51.140;4.088;2023-02-01T15:49:05;23.20;;;3.47;;
32216;SDS011;67098;51.140;4.088;2023-02-01T15:51:43;24.73;;;4.38;;
32216;SDS011;67098;51.140;4.088;2023-02-01T15:54:16;26.48;;;4.65;;
32216;SDS011;67098;51.140;4.088;2023-02-01T15:56:56;26.63;;;4.90;;
32216;SDS011;67098;51.140;4.088;2023-02-01T15:59:37;24.35;;;3.92;;
32216;SDS011;67098;51.140;4.088;2023-02-01T16:02:24;32.40;;;4.50;;
32216;SDS011;67098;51.140;4.088;2023-02-01T16:04:51;29.20;;;3.72;;
32216;SDS011;67098;51.140;4.088;2023-02-01T16:07:26;19.85;;;3.78;;
32216;SDS011;67098;51.140;4.088;2023-02-01T16:09:54;26.90;;;4.05;;
32216;SDS011;67098;51.140;4.088;2023-02-01T16:12:30;30.98;;;5.07;;
32216;SDS011;67098;51.140;4.088;2023-02-01T16:15:03;31.02;;;4.07;;
32216;SDS011;67098;51.140;4.088;2023-02-01T16:17:30;23.48;;;3.70;;
32216;SDS011;67098;51.140;4.088;2023-02-01T16:19:56;29.02;;;4.10;;
32216;SDS011;67098;51.140;4.088;2023-02-01T16:22:22;23.60;;;4.63;;
32216;SDS011;67098;51.140;4.088;2023-02-01T16:24:49;25.80;;;4.22;;
32216;SDS011;67098;51.140;4.088;2023-02-01T16:27:14;24.33;;;4.03;;
32216;SDS011;67098;51.140;4.088;2023-02-01T16:29:40;24.10;;;4.30;;
32216;SDS011;67098;51.140;4.088;2023-02-01T16:32:06;30.30;;;5.00;;
32216;SDS011;67098;51.140;4.088;2023-02-01T16:34:39;28.63;;;4.18;;
32216;SDS011;67098;51.140;4.088;2023-02-01T16:37:05;30.35;;;4.38;;
32216;SDS011;67098;51.140;4.088;2023-02-01T16:39:34;23.08;;;4.03;;
32216;SDS011;67098;51.140;4.088;2023-02-01T16:42:00;27.67;;;4.53;;
32216;SDS011;67098;51.140;4.088;2023-02-01T16:44:30;25.25;;;4.15;;
32216;SDS011;67098;51.140;4.088;2023-02-01T16:46:55;27.52;;;4.28;;
32216;SDS011;67098;51.140;4.088;2023-02-01T16:49:23;22.90;;;4.30;;
32216;SDS011;67098;51.140;4.088;2023-02-01T16:51:50;23.65;;;3.90;;
32216;SDS011;67098;51.140;4.088;2023-02-01T16:54:19;27.13;;;5.05;;
32216;SDS011;67098;51.140;4.088;2023-02-01T16:56:46;27.90;;;4.10;;
32216;SDS011;67098;51.140;4.088;2023-02-01T16:59:12;32.13;;;4.65;;
32216;SDS011;67098;51.140;4.088;2023-02-01T17:01:39;26.95;;;4.65;;
32216;SDS011;67098;51.140;4.088;2023-02-01T17:04:07;29.00;;;4.50;;
32216;SDS011;67098;51.140;4.088;2023-02-01T17:06:33;29.95;;;3.90;;
32216;SDS011;67098;51.140;4.088;2023-02-01T17:09:02;17.75;;;3.85;;
32216;SDS011;67098;51.140;4.088;2023-02-01T17:11:29;31.27;;;5.90;;
32216;SDS011;67098;51.140;4.088;2023-02-01T17:13:56;30.42;;;4.55;;
32216;SDS011;67098;51.140;4.088;2023-02-01T17:16:26;27.63;;;4.60;;
32216;SDS011;67098;51.140;4.088;2023-02-01T17:18:57;28.67;;;4.00;;
32216;SDS011;67098;51.140;4.088;2023-02-01T17:21:28;27.13;;;5.05;;
32216;SDS011;67098;51.140;4.088;2023-02-01T17:23:55;31.45;;;5.30;;
32216;SDS011;67098;51.140;4.088;2023-02-01T17:26:24;24.83;;;4.25;;
32216;SDS011;67098;51.140;4.088;2023-02-01T17:28:49;34.35;;;5.15;;
32216;SDS011;67098;51.140;4.088;2023-02-01T17:31:15;36.38;;;5.32;;
32216;SDS011;67098;51.140;4.088;2023-02-01T17:33:41;36.83;;;5.65;;
32216;SDS011;67098;51.140;4.088;2023-02-01T17:36:12;21.40;;;4.20;;
32216;SDS011;67098;51.140;4.088;2023-02-01T17:38:39;34.83;;;4.70;;
32216;SDS011;67098;51.140;4.088;2023-02-01T17:41:05;32.72;;;5.55;;
32216;SDS011;67098;51.140;4.088;2023-02-01T17:43:31;23.95;;;4.68;;